createdAt,value
2018-01-17T00:00:59.751Z,3.71
2018-01-17T00:03:34.780Z,3.71
2018-01-17T00:06:09.635Z,3.75
2018-01-17T00:08:44.618Z,3.72
2018-01-17T00:11:19.278Z,3.73
2018-01-17T00:13:53.662Z,3.69
2018-01-17T00:16:28.850Z,3.66
2018-01-17T00:19:04.254Z,3.64
2018-01-17T00:21:39.712Z,3.65
2018-01-17T00:24:14.456Z,3.66
2018-01-17T00:26:49.422Z,3.71
2018-01-17T00:29:24.453Z,3.77
2018-01-17T00:31:59.250Z,3.80
2018-01-17T00:34:34.381Z,3.77
2018-01-17T00:37:08.705Z,3.77
2018-01-17T00:39:43.831Z,3.74
2018-01-17T00:42:18.878Z,3.74
2018-01-17T00:44:53.854Z,3.73
2018-01-17T00:47:28.829Z,3.77
2018-01-17T00:50:04.367Z,3.77
2018-01-17T00:52:39.762Z,3.82
2018-01-17T00:55:14.426Z,3.82
2018-01-17T00:57:49.423Z,3.81
2018-01-17T01:00:24.531Z,3.82
2018-01-17T01:02:59.572Z,3.88
2018-01-17T01:05:34.146Z,3.87
2018-01-17T01:08:09.570Z,3.84
2018-01-17T01:10:44.538Z,3.83
2018-01-17T01:13:19.490Z,3.81
2018-01-17T01:15:54.127Z,3.79
2018-01-17T01:18:28.888Z,3.75
2018-01-17T01:21:03.876Z,3.68
2018-01-17T01:23:39.882Z,3.72
2018-01-17T01:26:14.979Z,3.73
2018-01-17T01:28:49.915Z,3.80
2018-01-17T01:31:25.078Z,3.80
2018-01-17T01:33:59.862Z,3.74
2018-01-17T01:36:35.042Z,3.74
2018-01-17T01:39:09.944Z,3.70
2018-01-17T01:41:44.918Z,3.65
2018-01-17T01:44:19.586Z,3.65
2018-01-17T01:46:54.822Z,3.58
2018-01-17T01:49:29.745Z,3.54
2018-01-17T01:52:04.099Z,3.54
2018-01-17T01:54:40.062Z,3.49
2018-01-17T01:57:14.825Z,3.51
2018-01-17T01:59:49.572Z,3.50
2018-01-17T02:02:24.794Z,3.46
2018-01-17T02:04:59.679Z,3.37
2018-01-17T02:07:34.766Z,3.27
2018-01-17T02:10:09.804Z,3.09
2018-01-17T02:12:44.809Z,3.04
2018-01-17T02:15:19.706Z,2.96
2018-01-17T02:17:55.007Z,2.88
2018-01-17T02:20:29.955Z,2.84
2018-01-17T02:23:04.950Z,2.79
2018-01-17T02:25:40.123Z,2.75
2018-01-17T02:28:14.856Z,2.75
2018-01-17T02:30:49.894Z,2.84
2018-01-17T02:33:24.537Z,2.80
2018-01-17T02:35:59.742Z,2.79
2018-01-17T02:38:34.163Z,2.81
2018-01-17T02:41:09.314Z,2.81
2018-01-17T02:43:44.299Z,2.81
2018-01-17T02:46:19.637Z,2.82
2018-01-17T02:48:54.823Z,2.80
2018-01-17T02:51:29.683Z,2.76
2018-01-17T02:54:04.287Z,2.78
2018-01-17T02:56:40.185Z,2.76
2018-01-17T02:59:15.776Z,2.71
2018-01-17T03:01:51.038Z,2.68
2018-01-17T03:04:26.064Z,2.69
2018-01-17T03:07:01.188Z,2.73
2018-01-17T03:09:36.324Z,2.77
2018-01-17T03:12:11.087Z,2.81
2018-01-17T03:14:46.139Z,2.86
2018-01-17T03:17:21.347Z,2.85
2018-01-17T03:19:56.266Z,2.82
2018-01-17T03:22:31.235Z,2.82
2018-01-17T03:25:06.144Z,2.80
2018-01-17T03:27:41.166Z,2.76
2018-01-17T03:30:16.202Z,2.78
2018-01-17T03:32:51.462Z,2.78
2018-01-17T03:35:26.242Z,2.82
2018-01-17T03:38:01.049Z,2.80
2018-01-17T03:40:36.115Z,2.78
2018-01-17T03:43:10.986Z,2.79
2018-01-17T03:45:46.184Z,2.83
2018-01-17T03:48:21.044Z,2.82
2018-01-17T03:50:56.303Z,2.82
2018-01-17T03:53:31.170Z,2.85
2018-01-17T03:56:06.766Z,2.81
2018-01-17T03:58:41.294Z,2.79
2018-01-17T04:01:16.088Z,2.84
2018-01-17T04:03:51.466Z,2.80
2018-01-17T04:06:26.432Z,2.69
2018-01-17T04:09:01.355Z,2.68
2018-01-17T04:11:36.254Z,2.64
2018-01-17T04:14:11.208Z,2.65
2018-01-17T04:16:46.279Z,2.71
2018-01-17T04:19:21.898Z,2.76
2018-01-17T04:21:56.679Z,2.76
2018-01-17T04:24:31.801Z,2.79
2018-01-17T04:27:06.398Z,2.84
2018-01-17T04:29:41.577Z,2.85
2018-01-17T04:32:16.191Z,2.83
2018-01-17T04:34:51.166Z,2.84
2018-01-17T04:37:26.075Z,2.83
2018-01-17T04:40:01.047Z,2.81
2018-01-17T04:42:35.766Z,2.84
2018-01-17T04:45:10.513Z,2.81
2018-01-17T04:47:45.880Z,2.75
2018-01-17T04:50:20.918Z,2.75
2018-01-17T04:52:55.664Z,2.81
2018-01-17T04:55:30.260Z,2.75
2018-01-17T04:58:05.107Z,2.67
2018-01-17T05:00:40.509Z,2.63
2018-01-17T05:03:15.131Z,2.67
2018-01-17T05:05:50.514Z,2.64
2018-01-17T05:08:26.121Z,2.63
2018-01-17T05:11:01.282Z,2.62
2018-01-17T05:13:35.707Z,2.67
2018-01-17T05:16:10.987Z,2.64
2018-01-17T05:18:46.356Z,2.58
2018-01-17T05:21:21.130Z,2.59
2018-01-17T05:23:56.146Z,2.62
2018-01-17T05:26:31.229Z,2.68
2018-01-17T05:29:06.259Z,2.70
2018-01-17T05:31:41.262Z,2.69
2018-01-17T05:34:16.395Z,2.72
2018-01-17T05:36:51.722Z,2.77
2018-01-17T05:39:26.522Z,2.82
2018-01-17T05:42:01.633Z,2.90
2018-01-17T05:44:36.474Z,2.94
2018-01-17T05:47:11.382Z,2.97
2018-01-17T05:49:46.498Z,2.97
2018-01-17T05:52:21.322Z,2.94
2018-01-17T05:54:56.597Z,2.83
2018-01-17T05:57:31.309Z,2.74
2018-01-17T06:00:06.323Z,2.65
2018-01-17T06:02:41.296Z,2.65
2018-01-17T06:05:16.210Z,2.69
2018-01-17T06:07:51.241Z,2.65
2018-01-17T06:10:26.230Z,2.56
2018-01-17T06:13:01.310Z,2.46
2018-01-17T06:15:36.370Z,2.44
2018-01-17T06:18:11.450Z,2.48
2018-01-17T06:20:46.443Z,2.53
2018-01-17T06:23:21.779Z,2.56
2018-01-17T06:25:57.254Z,2.56
2018-01-17T06:28:32.302Z,2.58
2018-01-17T06:31:07.330Z,2.61
2018-01-17T06:33:41.765Z,2.64
2018-01-17T06:36:16.627Z,2.68
2018-01-17T06:38:51.697Z,2.68
2018-01-17T06:41:26.582Z,2.60
2018-01-17T06:44:01.627Z,2.56
2018-01-17T06:46:37.325Z,2.58
2018-01-17T06:49:11.830Z,2.52
2018-01-17T06:51:46.757Z,2.47
2018-01-17T06:54:21.627Z,2.44
2018-01-17T06:56:56.623Z,2.44
2018-01-17T06:59:31.606Z,2.44
2018-01-17T07:02:06.759Z,2.44
2018-01-17T07:04:41.743Z,2.47
2018-01-17T07:07:16.442Z,2.53
2018-01-17T07:09:51.350Z,2.56
2018-01-17T07:12:25.785Z,2.56
2018-01-17T07:15:00.858Z,2.59
2018-01-17T07:17:35.993Z,2.57
2018-01-17T07:20:10.778Z,2.58
2018-01-17T07:22:45.881Z,2.59
2018-01-17T07:25:20.789Z,2.56
2018-01-17T07:27:55.720Z,2.48
2018-01-17T07:30:30.696Z,2.48
2018-01-17T07:33:05.721Z,2.52
2018-01-17T07:35:40.814Z,2.55
2018-01-17T07:38:15.670Z,2.47
2018-01-17T07:40:50.675Z,2.45
2018-01-17T07:43:25.498Z,2.44
2018-01-17T07:46:00.497Z,2.46
2018-01-17T07:48:35.486Z,2.46
2018-01-17T07:51:10.510Z,2.41
2018-01-17T07:53:45.706Z,2.43
2018-01-17T07:56:20.501Z,2.53
2018-01-17T07:58:55.031Z,2.53
2018-01-17T08:01:29.999Z,2.48
2018-01-17T08:04:05.131Z,2.47
2018-01-17T08:06:40.882Z,2.44
2018-01-17T08:09:16.014Z,2.45
2018-01-17T08:11:50.793Z,2.44
2018-01-17T08:14:25.864Z,2.37
2018-01-17T08:17:00.850Z,2.36
2018-01-17T08:19:35.989Z,2.34
2018-01-17T08:22:11.182Z,2.39
2018-01-17T08:24:46.668Z,2.32
2018-01-17T08:27:21.592Z,2.26
2018-01-17T08:29:56.870Z,2.33
2018-01-17T08:32:31.813Z,2.34
2018-01-17T08:35:06.734Z,2.32
2018-01-17T08:37:42.015Z,2.38
2018-01-17T08:40:17.095Z,2.34
2018-01-17T08:42:52.205Z,2.33
2018-01-17T08:45:27.718Z,2.43
2018-01-17T08:48:02.507Z,2.46
2018-01-17T08:50:37.109Z,2.51
2018-01-17T08:53:12.618Z,2.59
2018-01-17T08:55:47.498Z,2.65
2018-01-17T08:58:22.470Z,2.73
2018-01-17T09:00:57.557Z,2.68
2018-01-17T09:03:32.620Z,2.71
2018-01-17T09:06:07.586Z,2.75
2018-01-17T09:08:42.686Z,2.82
2018-01-17T09:11:17.638Z,2.83
2018-01-17T09:13:52.255Z,2.87
2018-01-17T09:16:27.125Z,2.91
2018-01-17T09:19:02.115Z,2.97
2018-01-17T09:21:37.190Z,2.99
2018-01-17T09:24:12.027Z,3.03
2018-01-17T09:26:46.962Z,3.07
2018-01-17T09:29:21.948Z,3.16
2018-01-17T09:31:56.838Z,3.11
2018-01-17T09:34:31.817Z,3.03
2018-01-17T09:37:06.728Z,3.05
2018-01-17T09:39:41.239Z,3.06
2018-01-17T09:42:16.138Z,3.10
2018-01-17T09:44:51.084Z,3.10
2018-01-17T09:47:26.129Z,3.09
2018-01-17T09:50:01.013Z,3.12
2018-01-17T09:52:35.971Z,3.15
2018-01-17T09:55:11.171Z,3.19
2018-01-17T09:57:46.182Z,3.23
2018-01-17T10:00:21.094Z,3.17
2018-01-17T10:02:56.187Z,3.18
2018-01-17T10:05:31.737Z,3.28
2018-01-17T10:08:06.649Z,3.29
2018-01-17T10:10:41.960Z,3.42
2018-01-17T10:13:16.849Z,3.53
2018-01-17T10:15:52.235Z,3.62
2018-01-17T10:18:27.090Z,3.72
2018-01-17T10:21:02.007Z,3.83
2018-01-17T10:23:36.966Z,3.78
2018-01-17T10:26:11.882Z,3.75
2018-01-17T10:28:46.949Z,3.78
2018-01-17T10:31:21.855Z,3.74
2018-01-17T10:33:56.587Z,3.76
2018-01-17T10:36:31.486Z,3.78
2018-01-17T10:39:06.118Z,3.84
2018-01-17T10:41:41.418Z,4.02
2018-01-17T10:44:16.342Z,4.15
2018-01-17T10:46:51.284Z,4.28
2018-01-17T10:49:25.974Z,4.45
2018-01-17T10:52:01.029Z,4.56
2018-01-17T10:54:36.114Z,4.58
2018-01-17T10:57:11.145Z,4.69
2018-01-17T10:59:46.413Z,4.73
2018-01-17T11:02:21.550Z,4.65
2018-01-17T11:04:56.303Z,4.68
2018-01-17T11:07:31.150Z,4.69
2018-01-17T11:10:06.503Z,4.77
2018-01-17T11:12:41.438Z,4.91
2018-01-17T11:15:16.202Z,4.97
2018-01-17T11:17:51.347Z,5.12
2018-01-17T11:20:26.343Z,5.21
2018-01-17T11:23:01.453Z,5.17
2018-01-17T11:25:36.409Z,5.22
2018-01-17T11:28:12.062Z,5.23
2018-01-17T11:30:47.150Z,5.14
2018-01-17T11:33:21.326Z,5.06
2018-01-17T11:35:56.554Z,4.91
2018-01-17T11:38:31.614Z,4.88
2018-01-17T11:41:06.511Z,4.77
2018-01-17T11:43:41.553Z,4.68
2018-01-17T11:46:16.543Z,4.58
2018-01-17T11:48:51.415Z,4.52
2018-01-17T11:51:26.413Z,4.47
2018-01-17T11:54:01.394Z,4.46
2018-01-17T11:56:36.322Z,4.46
2018-01-17T11:59:12.155Z,4.47
2018-01-17T12:01:47.387Z,4.44
2018-01-17T12:04:22.247Z,4.41
2018-01-17T12:06:57.346Z,4.40
2018-01-17T12:09:32.586Z,4.43
2018-01-17T12:12:07.386Z,4.45
2018-01-17T12:14:41.742Z,4.44
2018-01-17T12:17:16.599Z,4.46
2018-01-17T12:19:51.820Z,4.47
2018-01-17T12:22:27.267Z,4.42
2018-01-17T12:25:02.307Z,4.41
2018-01-17T12:27:37.651Z,4.34
2018-01-17T12:30:12.767Z,4.36
2018-01-17T12:32:48.128Z,4.36
2018-01-17T12:35:22.727Z,4.36
2018-01-17T12:37:57.583Z,4.44
2018-01-17T12:40:32.554Z,4.45
2018-01-17T12:43:07.730Z,4.37
2018-01-17T12:45:43.383Z,4.37
2018-01-17T12:48:18.622Z,4.37
2018-01-17T12:50:53.486Z,4.36
2018-01-17T12:53:28.411Z,4.39
2018-01-17T12:56:03.355Z,4.38
2018-01-17T12:58:38.405Z,4.34
2018-01-17T13:01:13.486Z,4.33
2018-01-17T13:03:48.691Z,4.29
2018-01-17T13:06:23.486Z,4.29
2018-01-17T13:08:58.450Z,4.31
2018-01-17T13:11:33.436Z,4.25
2018-01-17T13:14:08.342Z,4.17
2018-01-17T13:16:43.647Z,4.09
2018-01-17T13:19:18.469Z,4.07
2018-01-17T13:21:53.606Z,4.01
2018-01-17T13:24:28.607Z,3.95
2018-01-17T13:27:03.626Z,3.95
2018-01-17T13:29:38.803Z,4.01
2018-01-17T13:32:13.709Z,3.92
2018-01-17T13:34:49.166Z,3.94
2018-01-17T13:37:23.811Z,3.85
2018-01-17T13:39:59.363Z,3.84
2018-01-17T13:42:34.502Z,3.80
2018-01-17T13:45:09.502Z,3.82
2018-01-17T13:47:44.226Z,3.79
2018-01-17T13:50:19.341Z,3.85
2018-01-17T13:52:54.702Z,3.86
2018-01-17T13:55:29.550Z,3.87
2018-01-17T13:58:04.543Z,3.89
2018-01-17T14:00:39.537Z,3.94
2018-01-17T14:03:14.535Z,3.95
2018-01-17T14:05:49.306Z,4.01
2018-01-17T14:08:24.435Z,3.98
2018-01-17T14:10:59.038Z,4.00
2018-01-17T14:13:33.859Z,3.92
2018-01-17T14:16:08.878Z,3.98
2018-01-17T14:18:43.975Z,3.96
2018-01-17T14:21:18.934Z,3.92
2018-01-17T14:23:53.874Z,3.87
2018-01-17T14:26:28.770Z,3.87
2018-01-17T14:29:03.547Z,3.87
2018-01-17T14:31:37.951Z,3.88
2018-01-17T14:34:12.914Z,3.84
2018-01-17T14:36:48.010Z,3.83
2018-01-17T14:39:22.986Z,3.86
2018-01-17T14:41:58.508Z,3.86
2018-01-17T14:44:33.827Z,3.84
2018-01-17T14:47:08.967Z,3.80
2018-01-17T14:49:44.002Z,3.81
2018-01-17T14:52:18.856Z,3.79
2018-01-17T14:54:53.828Z,3.84
2018-01-17T14:57:28.827Z,3.89
2018-01-17T15:00:03.172Z,3.88
2018-01-17T15:02:38.646Z,3.87
2018-01-17T15:05:13.622Z,3.87
2018-01-17T15:07:48.822Z,3.84
2018-01-17T15:10:23.790Z,3.79
2018-01-17T15:12:58.773Z,3.82
2018-01-17T15:15:33.778Z,3.86
2018-01-17T15:18:08.558Z,3.80
2018-01-17T15:20:43.419Z,3.77
2018-01-17T15:23:18.471Z,3.82
2018-01-17T15:25:52.992Z,3.82
2018-01-17T15:28:27.703Z,3.82
2018-01-17T15:31:02.742Z,3.81
2018-01-17T15:33:37.589Z,3.84
2018-01-17T15:36:12.801Z,3.88
2018-01-17T15:38:48.036Z,3.88
2018-01-17T15:41:22.671Z,3.87
2018-01-17T15:43:58.147Z,3.86
2018-01-17T15:46:32.871Z,3.84
2018-01-17T15:49:07.862Z,3.84
2018-01-17T15:51:42.934Z,3.75
2018-01-17T15:54:17.896Z,3.66
2018-01-17T15:56:53.219Z,3.69
2018-01-17T15:59:27.776Z,3.67
2018-01-17T16:02:02.760Z,3.62
2018-01-17T16:04:37.925Z,3.64
2018-01-17T16:07:12.906Z,3.62
2018-01-17T16:09:48.126Z,3.62
2018-01-17T16:12:22.573Z,3.64
2018-01-17T16:14:57.834Z,3.67
2018-01-17T16:17:33.823Z,3.57
2018-01-17T16:20:09.024Z,3.54
2018-01-17T16:22:44.110Z,3.46
2018-01-17T16:25:18.966Z,3.30
2018-01-17T16:27:53.960Z,3.26
2018-01-17T16:30:28.837Z,3.34
2018-01-17T16:33:03.766Z,3.34
2018-01-17T16:35:38.912Z,3.35
2018-01-17T16:38:13.915Z,3.43
2018-01-17T16:40:49.408Z,3.44
2018-01-17T16:43:24.650Z,3.44
2018-01-17T16:45:59.982Z,3.45
2018-01-17T16:48:34.736Z,3.47
2018-01-17T16:51:09.299Z,3.40
2018-01-17T16:53:44.350Z,3.36
2018-01-17T16:56:19.562Z,3.36
2018-01-17T16:58:54.747Z,3.39
2018-01-17T17:01:29.410Z,3.34
2018-01-17T17:04:03.769Z,3.27
2018-01-17T17:06:38.353Z,3.28
2018-01-17T17:09:13.762Z,3.17
2018-01-17T17:11:48.544Z,3.17
2018-01-17T17:14:23.451Z,3.19
2018-01-17T17:16:58.503Z,3.18
2018-01-17T17:19:33.062Z,3.20
2018-01-17T17:22:08.214Z,3.25
2018-01-17T17:24:43.331Z,3.19
2018-01-17T17:27:18.338Z,3.11
2018-01-17T17:29:53.730Z,2.99
2018-01-17T17:32:28.614Z,2.97
2018-01-17T17:35:04.005Z,2.99
2018-01-17T17:37:38.995Z,3.02
2018-01-17T17:40:13.610Z,3.04
2018-01-17T17:42:48.491Z,3.06
2018-01-17T17:45:23.466Z,3.06
2018-01-17T17:47:58.480Z,3.03
2018-01-17T17:50:33.243Z,2.96
2018-01-17T17:53:08.134Z,2.98
2018-01-17T17:55:43.190Z,3.03
2018-01-17T17:58:18.100Z,3.04
2018-01-17T18:00:54.042Z,3.09
2018-01-17T18:03:28.522Z,3.16
2018-01-17T18:06:04.074Z,3.19
2018-01-17T18:08:40.153Z,3.24
2018-01-17T18:11:15.291Z,3.25
2018-01-17T18:13:50.265Z,3.18
2018-01-17T18:16:25.252Z,3.24
2018-01-17T18:19:00.372Z,3.27
2018-01-17T18:21:35.165Z,3.36
2018-01-17T18:24:10.150Z,3.42
2018-01-17T18:26:45.357Z,3.45
2018-01-17T18:29:20.319Z,3.50
2018-01-17T18:31:55.222Z,3.55
2018-01-17T18:34:30.258Z,3.61
2018-01-17T18:37:05.042Z,3.62
2018-01-17T18:39:40.356Z,3.66
2018-01-17T18:42:15.308Z,3.63
2018-01-17T18:44:50.122Z,3.61
2018-01-17T18:47:25.170Z,3.58
2018-01-17T18:50:00.142Z,3.55
2018-01-17T18:52:34.703Z,3.62
2018-01-17T18:55:09.564Z,3.64
2018-01-17T18:57:44.562Z,3.68
2018-01-17T19:00:19.541Z,3.67
2018-01-17T19:02:54.546Z,3.72
2018-01-17T19:05:29.702Z,3.79
2018-01-17T19:08:04.703Z,3.77
2018-01-17T19:10:39.625Z,3.76
2018-01-17T19:13:14.560Z,3.78
2018-01-17T19:15:49.418Z,3.80
2018-01-17T19:18:26.239Z,3.79
2018-01-17T19:21:01.315Z,3.74
2018-01-17T19:23:36.485Z,3.82
2018-01-17T19:26:11.398Z,3.87
2018-01-17T19:28:46.547Z,3.88
2018-01-17T19:31:21.420Z,3.92
2018-01-17T19:33:56.554Z,3.95
2018-01-17T19:36:31.537Z,3.97
2018-01-17T19:39:06.531Z,3.94
2018-01-17T19:41:42.638Z,3.96
2018-01-17T19:44:17.706Z,3.88
2018-01-17T19:46:53.226Z,3.71
2018-01-17T19:49:28.318Z,3.61
2018-01-17T19:52:02.838Z,3.47
2018-01-17T19:54:37.687Z,3.40
2018-01-17T19:57:13.514Z,3.32
2018-01-17T19:59:48.644Z,3.17
2018-01-17T20:02:23.754Z,3.05
2018-01-17T20:04:58.794Z,2.94
2018-01-17T20:07:33.787Z,2.85
2018-01-17T20:10:08.334Z,2.84
2018-01-17T20:12:44.803Z,2.80
2018-01-17T20:15:19.676Z,2.77
2018-01-17T20:17:54.803Z,2.75
2018-01-17T20:20:29.613Z,2.77
2018-01-17T20:23:07.503Z,2.85
2018-01-17T20:25:42.816Z,2.95
2018-01-17T20:28:17.586Z,2.98
2018-01-17T20:30:52.560Z,3.05
2018-01-17T20:33:27.557Z,3.14
2018-01-17T20:36:02.416Z,3.19
2018-01-17T20:38:37.371Z,3.25
2018-01-17T20:41:12.058Z,3.28
2018-01-17T20:43:47.831Z,3.32
2018-01-17T20:46:22.554Z,3.32
2018-01-17T20:48:57.794Z,3.38
2018-01-17T20:51:33.018Z,3.43
2018-01-17T20:54:07.950Z,3.41
2018-01-17T20:56:43.494Z,3.48
2018-01-17T20:59:18.629Z,3.51
2018-01-17T21:01:53.717Z,3.55
2018-01-17T21:04:28.752Z,3.55
2018-01-17T21:07:03.578Z,3.61
2018-01-17T21:09:38.631Z,3.65
2018-01-17T21:12:13.529Z,3.69
2018-01-17T21:14:48.443Z,3.74
2018-01-17T21:17:23.006Z,3.77
2018-01-17T21:19:58.034Z,3.82
2018-01-17T21:22:33.043Z,3.87
2018-01-17T21:25:07.847Z,3.84
2018-01-17T21:27:43.113Z,3.85
2018-01-17T21:30:17.778Z,3.89
2018-01-17T21:32:53.114Z,3.93
2018-01-17T21:35:27.817Z,4.01
2018-01-17T21:38:02.785Z,3.95
2018-01-17T21:40:37.816Z,4.03
2018-01-17T21:43:18.174Z,4.09
2018-01-17T21:45:53.394Z,4.11
2018-01-17T21:48:28.218Z,4.14
2018-01-17T21:51:03.747Z,4.15
2018-01-17T21:53:38.874Z,4.12
2018-01-17T21:56:13.752Z,4.12
2018-01-17T21:58:48.947Z,4.18
2018-01-17T22:01:23.796Z,4.19
2018-01-17T22:03:58.883Z,4.20
2018-01-17T22:06:33.976Z,4.21
2018-01-17T22:09:08.979Z,4.23
2018-01-17T22:11:44.106Z,4.20
2018-01-17T22:14:19.207Z,4.23
2018-01-17T22:16:54.266Z,4.24
2018-01-17T22:19:28.855Z,4.26
2018-01-17T22:22:03.754Z,4.24
2018-01-17T22:24:38.365Z,4.26
2018-01-17T22:27:13.294Z,4.30
2018-01-17T22:29:48.308Z,4.35
2018-01-17T22:32:23.569Z,4.36
2018-01-17T22:34:58.756Z,4.37
2018-01-17T22:37:33.299Z,4.35
2018-01-17T22:40:07.995Z,4.35
2018-01-17T22:42:43.202Z,4.30
2018-01-17T22:45:18.108Z,4.25
2018-01-17T22:47:53.414Z,4.23
2018-01-17T22:50:28.114Z,4.22
2018-01-17T22:53:03.191Z,4.25
2018-01-17T22:55:37.797Z,4.27
2018-01-17T22:58:12.918Z,4.29
2018-01-17T23:00:47.962Z,4.30
2018-01-17T23:03:23.016Z,4.28
2018-01-17T23:05:58.158Z,4.29
2018-01-17T23:08:33.071Z,4.30
2018-01-17T23:11:08.135Z,4.31
2018-01-17T23:13:43.391Z,4.29
2018-01-17T23:16:18.915Z,4.32
2018-01-17T23:18:53.919Z,4.31
2018-01-17T23:21:28.613Z,4.31
2018-01-17T23:24:03.421Z,4.37
2018-01-17T23:26:38.287Z,4.39
2018-01-17T23:29:13.198Z,4.39
2018-01-17T23:31:48.287Z,4.38
2018-01-17T23:34:23.067Z,4.43
2018-01-17T23:36:57.955Z,4.38
2018-01-17T23:39:32.510Z,4.40
2018-01-17T23:42:07.403Z,4.40
2018-01-17T23:44:43.305Z,4.42
2018-01-17T23:47:17.942Z,4.44
2018-01-17T23:49:52.931Z,4.38
2018-01-17T23:52:27.853Z,4.35
2018-01-17T23:55:02.488Z,4.36
2018-01-17T23:57:37.419Z,4.34
